createdAt,value
2024-02-19T00:02:16.522Z,100458.78
2024-02-19T00:07:20.276Z,100450.81
2024-02-19T00:12:28.385Z,100453.88
2024-02-19T00:17:34.114Z,100449.09
2024-02-19T00:22:37.617Z,100454.78
2024-02-19T00:27:41.291Z,100437.50
2024-02-19T00:32:46.116Z,100423.19
2024-02-19T00:37:55.172Z,100421.97
2024-02-19T00:42:58.498Z,100411.22
2024-02-19T00:48:04.114Z,100417.88
2024-02-19T00:53:08.250Z,100410.56
2024-02-19T00:58:12.098Z,100419.97
2024-02-19T01:03:18.545Z,100409.25
2024-02-19T01:08:22.089Z,100402.38
2024-02-19T01:13:26.032Z,100404.72
2024-02-19T01:18:31.434Z,100402.94
2024-02-19T01:23:40.837Z,100397.13
2024-02-19T01:28:46.271Z,100396.28
2024-02-19T01:33:51.526Z,100404.97
2024-02-19T01:38:54.860Z,100401.28
2024-02-19T01:43:58.486Z,100398.78
2024-02-19T01:49:04.270Z,100392.00
2024-02-19T01:54:10.959Z,100390.47
2024-02-19T01:59:17.003Z,100386.31
2024-02-19T02:04:22.611Z,100388.94
2024-02-19T02:09:31.342Z,100376.69
2024-02-19T02:14:35.065Z,100382.16
2024-02-19T02:19:42.923Z,100389.31
2024-02-19T02:24:46.425Z,100401.00
2024-02-19T02:29:51.478Z,100388.72
2024-02-19T02:34:55.211Z,100380.94
2024-02-19T02:39:58.737Z,100386.38
2024-02-19T02:45:05.060Z,100380.38
2024-02-19T02:50:09.327Z,100397.97
2024-02-19T02:55:13.159Z,100407.03
2024-02-19T03:00:19.498Z,100406.69
2024-02-19T03:05:22.876Z,100397.56
2024-02-19T03:10:26.558Z,100407.34
2024-02-19T03:15:31.685Z,100416.38
2024-02-19T03:20:36.064Z,100421.88
2024-02-19T03:25:39.348Z,100420.72
2024-02-19T03:30:44.165Z,100432.69
2024-02-19T03:35:48.214Z,100445.56
2024-02-19T03:40:52.179Z,100446.88
2024-02-19T03:45:59.351Z,100447.84
2024-02-19T03:51:02.650Z,100461.28
2024-02-19T03:56:07.052Z,100461.97
2024-02-19T04:01:12.572Z,100480.63
2024-02-19T04:06:16.085Z,100489.06
2024-02-19T04:11:20.234Z,100492.78
2024-02-19T04:16:25.057Z,100494.94
2024-02-19T04:21:28.458Z,100512.97
2024-02-19T04:26:31.723Z,100504.22
2024-02-19T04:31:36.805Z,100520.81
2024-02-19T04:36:40.421Z,100530.06
2024-02-19T04:41:44.298Z,100527.78
2024-02-19T04:46:49.650Z,100529.31
2024-02-19T04:51:54.422Z,100546.16
2024-02-19T04:56:58.001Z,100539.53
2024-02-19T05:02:02.963Z,100550.69
2024-02-19T05:07:06.465Z,100545.69
2024-02-19T05:12:10.642Z,100562.41
2024-02-19T05:17:17.896Z,100563.94
2024-02-19T05:22:24.840Z,100568.22
2024-02-19T05:27:28.802Z,100561.44
2024-02-19T05:32:33.498Z,100567.69
2024-02-19T05:37:36.764Z,100566.75
2024-02-19T05:42:40.434Z,100582.78
2024-02-19T05:47:45.640Z,100588.13
2024-02-19T05:52:48.974Z,100583.97
2024-02-19T05:57:52.348Z,100595.34
2024-02-19T06:03:05.339Z,100605.56
2024-02-19T06:08:09.571Z,100607.44
2024-02-19T06:13:19.088Z,100618.00
2024-02-19T06:18:34.961Z,100625.34
2024-02-19T06:23:38.534Z,100641.47
2024-02-19T06:28:46.888Z,100651.72
2024-02-19T06:33:51.712Z,100671.75
2024-02-19T06:38:55.419Z,100671.38
2024-02-19T06:43:58.673Z,100679.31
2024-02-19T06:49:08.367Z,100686.06
2024-02-19T06:54:12.513Z,100697.59
2024-02-19T06:59:15.666Z,100700.41
2024-02-19T07:04:21.141Z,100707.72
2024-02-19T07:09:26.498Z,100720.06
2024-02-19T07:14:32.409Z,100726.22
2024-02-19T07:19:37.936Z,100744.97
2024-02-19T07:24:42.083Z,100752.00
2024-02-19T07:29:45.982Z,100762.31
2024-02-19T07:34:50.767Z,100774.00
2024-02-19T07:39:54.242Z,100782.53
2024-02-19T07:44:57.637Z,100806.03
2024-02-19T07:50:03.191Z,100805.09
2024-02-19T07:55:13.633Z,100812.06
2024-02-19T08:00:18.295Z,100824.06
2024-02-19T08:05:23.570Z,100832.63
2024-02-19T08:10:27.232Z,100831.06
2024-02-19T08:15:30.508Z,100841.41
2024-02-19T08:20:35.302Z,100850.81
2024-02-19T08:25:38.880Z,100854.13
2024-02-19T08:30:45.103Z,100855.25
2024-02-19T08:35:51.181Z,100864.53
2024-02-19T08:40:55.609Z,100869.72
2024-02-19T08:45:59.495Z,100858.72
2024-02-19T08:51:04.401Z,100880.06
2024-02-19T08:56:08.241Z,100882.44
2024-02-19T09:01:14.792Z,100892.34
2024-02-19T09:06:19.843Z,100896.41
2024-02-19T09:11:23.153Z,100900.59
2024-02-19T09:16:30.226Z,100904.78
2024-02-19T09:21:35.053Z,100904.88
2024-02-19T09:26:38.735Z,100913.31
2024-02-19T09:31:42.160Z,100911.69
2024-02-19T09:36:47.650Z,100911.16
2024-02-19T09:41:55.162Z,100917.38
2024-02-19T09:47:04.041Z,100925.50
2024-02-19T09:52:13.513Z,100925.06
2024-02-19T09:57:17.122Z,100927.69
2024-02-19T10:02:21.331Z,100941.97
2024-02-19T10:07:26.129Z,100951.41
2024-02-19T10:12:30.876Z,100948.75
2024-02-19T10:17:34.384Z,100952.09
2024-02-19T10:22:44.282Z,100951.41
2024-02-19T10:27:47.717Z,100953.56
2024-02-19T10:32:52.859Z,100950.63
2024-02-19T10:37:59.522Z,100959.22
2024-02-19T10:43:03.357Z,100964.97
2024-02-19T10:48:07.711Z,100968.56
2024-02-19T10:53:13.521Z,100972.03
2024-02-19T10:58:18.155Z,100970.09
2024-02-19T11:03:21.810Z,100967.97
2024-02-19T11:08:29.300Z,100963.91
2024-02-19T11:13:38.860Z,100968.19
2024-02-19T11:18:46.654Z,100957.81
2024-02-19T11:24:02.708Z,100954.69
2024-02-19T11:29:07.040Z,100954.78
2024-02-19T11:34:16.913Z,100950.13
2024-02-19T11:39:21.770Z,100945.59
2024-02-19T11:55:02.862Z,100934.06
2024-02-19T12:00:11.664Z,100942.44
2024-02-19T12:05:15.855Z,100943.84
2024-02-19T12:10:20.834Z,100949.19
2024-02-19T12:15:24.377Z,100938.50
2024-02-19T12:20:28.490Z,100940.53
2024-02-19T12:25:33.644Z,100943.63
2024-02-19T12:30:39.528Z,100951.50
2024-02-19T12:35:48.615Z,100952.91
2024-02-19T12:40:53.415Z,100959.72
2024-02-19T12:45:58.079Z,100949.00
2024-02-19T12:51:04.649Z,100956.50
2024-02-19T12:56:10.100Z,100958.38
2024-02-19T13:01:24.064Z,100952.91
2024-02-19T13:06:34.718Z,100965.31
2024-02-19T13:11:47.267Z,100954.94
2024-02-19T13:17:02.008Z,100958.78
2024-02-19T13:22:11.457Z,100956.03
2024-02-19T13:27:19.721Z,100956.63
2024-02-19T13:32:23.974Z,100963.91
2024-02-19T13:37:27.815Z,100954.59
2024-02-19T13:42:35.343Z,100965.41
2024-02-19T13:47:40.275Z,100965.31
2024-02-19T13:52:44.887Z,100971.47
2024-02-19T13:57:49.793Z,100965.06
2024-02-19T14:02:53.054Z,100963.41
2024-02-19T14:08:02.422Z,100945.97
2024-02-19T14:13:07.440Z,100955.97
2024-02-19T14:18:11.483Z,100948.66
2024-02-19T14:23:18.688Z,100942.78
2024-02-19T14:28:27.808Z,100946.13
2024-02-19T14:33:31.568Z,100937.84
2024-02-19T14:38:35.065Z,100950.44
2024-02-19T14:43:39.832Z,100947.31
2024-02-19T14:48:43.886Z,100945.50
2024-02-19T14:53:48.290Z,100944.69
2024-02-19T14:58:52.980Z,100936.88
2024-02-19T15:03:56.522Z,100935.38
2024-02-19T15:09:00.870Z,100946.72
2024-02-19T15:14:06.200Z,100946.50
2024-02-19T15:19:14.304Z,100951.75
2024-02-19T15:24:19.243Z,100946.50
2024-02-19T15:29:25.781Z,100957.94
2024-02-19T15:34:30.262Z,100946.66
2024-02-19T15:39:34.116Z,100942.72
2024-02-19T15:44:41.522Z,100948.31
2024-02-19T15:49:48.815Z,100950.09
2024-02-19T15:54:53.673Z,100957.97
2024-02-19T15:59:58.480Z,100949.59
2024-02-19T16:05:03.162Z,100937.59
2024-02-19T16:10:10.062Z,100929.38
2024-02-19T16:15:22.892Z,100930.94
2024-02-19T16:20:27.146Z,100941.09
2024-02-19T16:25:30.806Z,100937.16
2024-02-19T16:30:35.896Z,100934.69
2024-02-19T16:35:39.474Z,100927.16
2024-02-19T16:40:48.545Z,100935.16
2024-02-19T16:45:56.926Z,100931.69
2024-02-19T16:51:01.222Z,100933.13
2024-02-19T16:56:05.680Z,100942.13
2024-02-19T17:01:12.236Z,100948.22
2024-02-19T17:06:27.010Z,100956.66
2024-02-19T17:11:33.529Z,100948.31
2024-02-19T17:16:41.452Z,100942.81
2024-02-19T17:21:47.436Z,100944.09
2024-02-19T17:26:53.611Z,100956.78
2024-02-19T17:31:59.230Z,100951.19
2024-02-19T17:37:06.087Z,100950.59
2024-02-19T17:42:09.583Z,100954.41
2024-02-19T17:47:14.540Z,100946.47
2024-02-19T17:52:18.112Z,100945.50
2024-02-19T17:57:21.798Z,100942.78
2024-02-19T18:02:27.538Z,100938.28
2024-02-19T18:07:31.200Z,100935.66
2024-02-19T18:12:35.080Z,100934.56
2024-02-19T18:17:40.945Z,100926.63
2024-02-19T18:22:49.266Z,100937.81
2024-02-19T18:27:53.061Z,100933.38
2024-02-19T18:32:59.567Z,100936.22
2024-02-19T18:38:03.019Z,100931.56
2024-02-19T18:43:06.619Z,100939.66
2024-02-19T18:48:11.890Z,100941.31
2024-02-19T18:53:15.388Z,100932.69
2024-02-19T18:58:19.896Z,100930.16
2024-02-19T19:03:28.034Z,100919.59
2024-02-19T19:08:32.445Z,100930.78
2024-02-19T19:13:36.432Z,100918.19
2024-02-19T19:18:41.569Z,100920.59
2024-02-19T19:23:47.335Z,100925.72
2024-02-19T19:28:50.703Z,100929.66
2024-02-19T19:33:55.527Z,100923.25
2024-02-19T19:39:02.875Z,100919.69
2024-02-19T19:44:07.637Z,100921.00
2024-02-19T19:49:13.072Z,100919.81
2024-02-19T19:54:19.933Z,100924.34
2024-02-19T19:59:24.399Z,100919.97
2024-02-19T20:04:32.412Z,100926.34
2024-02-19T20:09:41.027Z,100920.88
2024-02-19T20:14:46.275Z,100920.88
2024-02-19T20:19:51.378Z,100926.81
2024-02-19T20:24:58.522Z,100931.56
2024-02-19T20:30:05.590Z,100930.63
2024-02-19T20:35:20.723Z,100931.44
2024-02-19T20:40:24.571Z,100936.06
2024-02-19T20:45:28.590Z,100942.03
2024-02-19T20:50:36.738Z,100940.22
2024-02-19T20:55:40.338Z,100935.59
2024-02-19T21:00:47.390Z,100933.94
2024-02-19T21:05:55.788Z,100932.16
2024-02-19T21:11:03.666Z,100933.09
2024-02-19T21:16:13.862Z,100932.28
2024-02-19T21:21:29.575Z,100928.72
2024-02-19T21:26:38.301Z,100931.31
2024-02-19T21:31:42.414Z,100930.72
2024-02-19T21:36:51.145Z,100930.47
2024-02-19T21:41:55.375Z,100928.94
2024-02-19T21:46:58.795Z,100921.91
2024-02-19T21:52:04.488Z,100913.13
2024-02-19T21:57:08.997Z,100917.75
2024-02-19T22:02:12.299Z,100902.88
2024-02-19T22:07:17.506Z,100902.88
2024-02-19T22:12:21.482Z,100899.47
2024-02-19T22:17:25.746Z,100890.66
2024-02-19T22:22:35.813Z,100886.47
2024-02-19T22:27:43.262Z,100881.34
2024-02-19T22:32:48.657Z,100877.53
2024-02-19T22:37:54.300Z,100876.22
2024-02-19T22:42:58.442Z,100866.78
2024-02-19T22:48:02.780Z,100871.34
2024-02-19T22:53:10.916Z,100879.03
2024-02-19T22:58:29.415Z,100877.78
2024-02-19T23:03:37.487Z,100872.88
2024-02-19T23:08:42.444Z,100872.88
2024-02-19T23:13:46.304Z,100866.22
2024-02-19T23:18:52.739Z,100871.59
2024-02-19T23:23:59.419Z,100868.63
2024-02-19T23:29:03.273Z,100872.88
2024-02-19T23:34:07.034Z,100878.56
2024-02-19T23:39:11.917Z,100881.28
2024-02-19T23:44:15.335Z,100878.97
2024-02-19T23:49:18.980Z,100881.13
2024-02-19T23:54:24.664Z,100880.91
2024-02-19T23:59:28.361Z,100886.66
